sensor_id;sensor_type;location;lat;lon;timestamp;pressure;altitude;pressure_sealevel;temperature;humidity
42705;BME280;28342;42.594;23.414;2023-04-25T00:02:15;93783.44;;;11.24;100.00
42705;BME280;28342;42.594;23.414;2023-04-25T00:04:40;93783.31;;;11.32;100.00
42705;BME280;28342;42.594;23.414;2023-04-25T00:07:07;93793.56;;;11.55;100.00
42705;BME280;28342;42.594;23.414;2023-04-25T00:09:36;93783.72;;;11.55;99.12
42705;BME280;28342;42.594;23.414;2023-04-25T00:12:01;93766.44;;;11.37;98.63
42705;BME280;28342;42.594;23.414;2023-04-25T00:14:27;93770.16;;;11.24;99.95
42705;BME280;28342;42.594;23.414;2023-04-25T00:16:53;93766.63;;;11.20;100.00
42705;BME280;28342;42.594;23.414;2023-04-25T00:19:19;93752.13;;;11.29;99.20
42705;BME280;28342;42.594;23.414;2023-04-25T00:21:44;93752.72;;;11.35;99.27
42705;BME280;28342;42.594;23.414;2023-04-25T00:24:12;93746.94;;;11.21;100.00
42705;BME280;28342;42.594;23.414;2023-04-25T00:26:38;93747.03;;;11.24;100.00
42705;BME280;28342;42.594;23.414;2023-04-25T00:29:03;93754.00;;;11.29;100.00
42705;BME280;28342;42.594;23.414;2023-04-25T00:31:29;93747.56;;;11.05;100.00
42705;BME280;28342;42.594;23.414;2023-04-25T00:33:54;93707.50;;;10.98;100.00
42705;BME280;28342;42.594;23.414;2023-04-25T00:36:20;93708.84;;;11.04;100.00
42705;BME280;28342;42.594;23.414;2023-04-25T00:38:45;93709.63;;;11.17;100.00
42705;BME280;28342;42.594;23.414;2023-04-25T00:41:11;93708.16;;;10.95;100.00
42705;BME280;28342;42.594;23.414;2023-04-25T00:43:37;93699.50;;;10.86;100.00
42705;BME280;28342;42.594;23.414;2023-04-25T00:46:02;93691.34;;;10.91;100.00
42705;BME280;28342;42.594;23.414;2023-04-25T00:48:28;93679.06;;;10.87;100.00
42705;BME280;28342;42.594;23.414;2023-04-25T00:50:56;93692.91;;;10.92;100.00
42705;BME280;28342;42.594;23.414;2023-04-25T00:53:23;93694.03;;;11.03;100.00
42705;BME280;28342;42.594;23.414;2023-04-25T00:55:49;93647.22;;;10.41;100.00
42705;BME280;28342;42.594;23.414;2023-04-25T00:58:17;93677.69;;;10.68;100.00
42705;BME280;28342;42.594;23.414;2023-04-25T01:00:43;93663.19;;;10.66;100.00
42705;BME280;28342;42.594;23.414;2023-04-25T01:03:09;93669.69;;;10.89;100.00
42705;BME280;28342;42.594;23.414;2023-04-25T01:05:35;93641.50;;;10.52;100.00
42705;BME280;28342;42.594;23.414;2023-04-25T01:08:01;93651.16;;;10.68;100.00
42705;BME280;28342;42.594;23.414;2023-04-25T01:10:26;93645.84;;;10.68;100.00
42705;BME280;28342;42.594;23.414;2023-04-25T01:12:52;93643.06;;;10.53;100.00
42705;BME280;28342;42.594;23.414;2023-04-25T01:15:17;93640.78;;;10.63;100.00
42705;BME280;28342;42.594;23.414;2023-04-25T01:17:43;93643.09;;;10.65;100.00
42705;BME280;28342;42.594;23.414;2023-04-25T01:20:10;93643.66;;;10.70;100.00
42705;BME280;28342;42.594;23.414;2023-04-25T01:22:36;93655.69;;;10.68;100.00
42705;BME280;28342;42.594;23.414;2023-04-25T01:25:02;93639.13;;;10.71;100.00
42705;BME280;28342;42.594;23.414;2023-04-25T01:27:27;93626.28;;;10.61;100.00
42705;BME280;28342;42.594;23.414;2023-04-25T01:29:54;93615.03;;;10.64;100.00
42705;BME280;28342;42.594;23.414;2023-04-25T01:32:20;93623.47;;;10.78;100.00
42705;BME280;28342;42.594;23.414;2023-04-25T01:34:46;93647.47;;;10.94;98.87
42705;BME280;28342;42.594;23.414;2023-04-25T01:37:12;93644.91;;;10.97;99.36
42705;BME280;28342;42.594;23.414;2023-04-25T01:39:37;93650.56;;;10.96;100.00
42705;BME280;28342;42.594;23.414;2023-04-25T01:42:03;93648.66;;;10.84;100.00
42705;BME280;28342;42.594;23.414;2023-04-25T01:44:28;93651.34;;;10.96;100.00
42705;BME280;28342;42.594;23.414;2023-04-25T01:46:54;93646.03;;;10.96;99.72
42705;BME280;28342;42.594;23.414;2023-04-25T01:49:19;93628.75;;;10.78;98.06
42705;BME280;28342;42.594;23.414;2023-04-25T01:51:45;93652.00;;;10.93;97.67
42705;BME280;28342;42.594;23.414;2023-04-25T01:54:10;93629.63;;;10.70;98.55
42705;BME280;28342;42.594;23.414;2023-04-25T01:56:37;93648.84;;;10.67;99.97
42705;BME280;28342;42.594;23.414;2023-04-25T01:59:04;93662.31;;;10.62;100.00
42705;BME280;28342;42.594;23.414;2023-04-25T02:01:30;93644.19;;;10.64;100.00
42705;BME280;28342;42.594;23.414;2023-04-25T02:03:56;93646.19;;;10.67;100.00
42705;BME280;28342;42.594;23.414;2023-04-25T02:06:22;93644.31;;;10.67;100.00
42705;BME280;28342;42.594;23.414;2023-04-25T02:08:47;93647.09;;;10.83;100.00
42705;BME280;28342;42.594;23.414;2023-04-25T02:11:13;93648.31;;;10.73;100.00
42705;BME280;28342;42.594;23.414;2023-04-25T02:13:38;93654.88;;;10.88;100.00
42705;BME280;28342;42.594;23.414;2023-04-25T02:16:04;93650.56;;;10.96;100.00
42705;BME280;28342;42.594;23.414;2023-04-25T02:18:29;93650.13;;;10.94;100.00
42705;BME280;28342;42.594;23.414;2023-04-25T02:20:57;93644.47;;;10.95;100.00
42705;BME280;28342;42.594;23.414;2023-04-25T02:23:22;93636.19;;;10.97;100.00
42705;BME280;28342;42.594;23.414;2023-04-25T02:25:48;93596.16;;;10.77;100.00
42705;BME280;28342;42.594;23.414;2023-04-25T02:28:14;93627.13;;;10.98;99.25
42705;BME280;28342;42.594;23.414;2023-04-25T02:30:39;93626.13;;;11.15;98.78
42705;BME280;28342;42.594;23.414;2023-04-25T02:33:05;93619.94;;;11.11;98.32
42705;BME280;28342;42.594;23.414;2023-04-25T02:35:30;93631.66;;;11.10;98.11
42705;BME280;28342;42.594;23.414;2023-04-25T02:37:55;93618.81;;;10.87;99.39
42705;BME280;28342;42.594;23.414;2023-04-25T02:40:21;93604.56;;;10.80;99.90
42705;BME280;28342;42.594;23.414;2023-04-25T02:42:46;93612.44;;;10.88;98.92
42705;BME280;28342;42.594;23.414;2023-04-25T02:45:12;93612.19;;;10.81;98.68
42705;BME280;28342;42.594;23.414;2023-04-25T02:47:37;93617.72;;;10.76;98.87
42705;BME280;28342;42.594;23.414;2023-04-25T02:50:03;93613.50;;;10.75;97.65
42705;BME280;28342;42.594;23.414;2023-04-25T02:52:29;93613.69;;;10.70;97.37
42705;BME280;28342;42.594;23.414;2023-04-25T02:54:55;93617.25;;;10.74;97.10
42705;BME280;28342;42.594;23.414;2023-04-25T02:57:20;93613.91;;;10.65;96.84
42705;BME280;28342;42.594;23.414;2023-04-25T02:59:46;93616.75;;;10.47;98.47
42705;BME280;28342;42.594;23.414;2023-04-25T03:02:11;93608.13;;;10.51;98.38
42705;BME280;28342;42.594;23.414;2023-04-25T03:04:37;93617.22;;;10.62;97.33
42705;BME280;28342;42.594;23.414;2023-04-25T03:07:03;93617.53;;;10.48;97.97
42705;BME280;28342;42.594;23.414;2023-04-25T03:09:29;93609.94;;;10.59;97.47
42705;BME280;28342;42.594;23.414;2023-04-25T03:11:55;93597.94;;;10.40;97.51
42705;BME280;28342;42.594;23.414;2023-04-25T03:14:20;93604.16;;;10.44;97.37
42705;BME280;28342;42.594;23.414;2023-04-25T03:16:45;93603.91;;;10.37;97.56
42705;BME280;28342;42.594;23.414;2023-04-25T03:19:11;93606.81;;;10.44;97.48
42705;BME280;28342;42.594;23.414;2023-04-25T03:21:40;93598.59;;;10.37;97.03
42705;BME280;28342;42.594;23.414;2023-04-25T03:24:08;93600.59;;;10.40;96.45
42705;BME280;28342;42.594;23.414;2023-04-25T03:26:33;93596.81;;;10.29;98.13
42705;BME280;28342;42.594;23.414;2023-04-25T03:28:59;93584.16;;;10.14;100.00
42705;BME280;28342;42.594;23.414;2023-04-25T03:31:24;93603.22;;;10.28;100.00
42705;BME280;28342;42.594;23.414;2023-04-25T03:33:50;93595.06;;;10.33;99.65
42705;BME280;28342;42.594;23.414;2023-04-25T03:36:15;93595.47;;;10.23;99.72
42705;BME280;28342;42.594;23.414;2023-04-25T03:38:41;93595.63;;;10.18;99.73
42705;BME280;28342;42.594;23.414;2023-04-25T03:41:07;93580.00;;;10.25;98.83
42705;BME280;28342;42.594;23.414;2023-04-25T03:43:32;93588.44;;;10.27;99.17
42705;BME280;28342;42.594;23.414;2023-04-25T03:45:58;93575.75;;;10.12;99.88
42705;BME280;28342;42.594;23.414;2023-04-25T03:48:25;93573.28;;;10.07;99.20
42705;BME280;28342;42.594;23.414;2023-04-25T03:50:51;93607.44;;;10.29;99.09
42705;BME280;28342;42.594;23.414;2023-04-25T03:53:17;93603.66;;;10.30;99.38
42705;BME280;28342;42.594;23.414;2023-04-25T03:55:42;93606.06;;;10.23;100.00
42705;BME280;28342;42.594;23.414;2023-04-25T03:58:08;93596.22;;;10.24;100.00
42705;BME280;28342;42.594;23.414;2023-04-25T04:00:34;93598.38;;;10.30;100.00
42705;BME280;28342;42.594;23.414;2023-04-25T04:03:00;93603.34;;;10.32;100.00
42705;BME280;28342;42.594;23.414;2023-04-25T04:05:26;93599.25;;;10.34;100.00
42705;BME280;28342;42.594;23.414;2023-04-25T04:07:52;93602.47;;;10.40;100.00
42705;BME280;28342;42.594;23.414;2023-04-25T04:10:18;93612.00;;;10.53;100.00
42705;BME280;28342;42.594;23.414;2023-04-25T04:12:43;93591.81;;;10.61;100.00
42705;BME280;28342;42.594;23.414;2023-04-25T04:15:09;93594.38;;;10.69;100.00
42705;BME280;28342;42.594;23.414;2023-04-25T04:17:35;93599.13;;;10.76;100.00
42705;BME280;28342;42.594;23.414;2023-04-25T04:20:00;93583.75;;;10.69;100.00
42705;BME280;28342;42.594;23.414;2023-04-25T04:22:26;93592.50;;;10.82;100.00
42705;BME280;28342;42.594;23.414;2023-04-25T04:24:51;93579.03;;;10.75;100.00
42705;BME280;28342;42.594;23.414;2023-04-25T04:27:18;93597.50;;;10.96;100.00
42705;BME280;28342;42.594;23.414;2023-04-25T04:29:44;93602.25;;;11.02;100.00
42705;BME280;28342;42.594;23.414;2023-04-25T04:32:10;93618.84;;;11.12;100.00
42705;BME280;28342;42.594;23.414;2023-04-25T04:34:35;93598.72;;;10.98;100.00
42705;BME280;28342;42.594;23.414;2023-04-25T04:37:01;93588.28;;;10.69;100.00
42705;BME280;28342;42.594;23.414;2023-04-25T04:39:26;93594.72;;;10.80;100.00
42705;BME280;28342;42.594;23.414;2023-04-25T04:41:52;93611.88;;;10.95;100.00
42705;BME280;28342;42.594;23.414;2023-04-25T04:44:18;93599.47;;;10.87;100.00
42705;BME280;28342;42.594;23.414;2023-04-25T04:46:45;93596.50;;;10.88;100.00
42705;BME280;28342;42.594;23.414;2023-04-25T04:49:12;93582.78;;;10.86;100.00
42705;BME280;28342;42.594;23.414;2023-04-25T04:51:39;93604.44;;;11.00;100.00
42705;BME280;28342;42.594;23.414;2023-04-25T04:54:05;93609.22;;;11.07;100.00
42705;BME280;28342;42.594;23.414;2023-04-25T04:56:31;93599.16;;;11.00;100.00
42705;BME280;28342;42.594;23.414;2023-04-25T04:58:57;93613.09;;;11.10;100.00
42705;BME280;28342;42.594;23.414;2023-04-25T05:01:23;93604.81;;;11.11;100.00
42705;BME280;28342;42.594;23.414;2023-04-25T05:03:49;93599.16;;;11.00;100.00
42705;BME280;28342;42.594;23.414;2023-04-25T05:06:16;93599.50;;;11.11;100.00
42705;BME280;28342;42.594;23.414;2023-04-25T05:08:41;93596.06;;;10.98;100.00
42705;BME280;28342;42.594;23.414;2023-04-25T05:11:07;93605.25;;;11.13;100.00
42705;BME280;28342;42.594;23.414;2023-04-25T05:13:32;93606.59;;;11.19;100.00
42705;BME280;28342;42.594;23.414;2023-04-25T05:15:57;93598.59;;;10.95;100.00
42705;BME280;28342;42.594;23.414;2023-04-25T05:18:23;93619.91;;;10.86;100.00
42705;BME280;28342;42.594;23.414;2023-04-25T05:20:48;93608.41;;;10.82;100.00
42705;BME280;28342;42.594;23.414;2023-04-25T05:23:14;93619.91;;;10.86;100.00
42705;BME280;28342;42.594;23.414;2023-04-25T05:25:39;93617.13;;;10.70;100.00
42705;BME280;28342;42.594;23.414;2023-04-25T05:28:05;93627.69;;;10.91;100.00
42705;BME280;28342;42.594;23.414;2023-04-25T05:30:31;93648.91;;;10.91;100.00
42705;BME280;28342;42.594;23.414;2023-04-25T05:32:56;93655.28;;;10.78;100.00
42705;BME280;28342;42.594;23.414;2023-04-25T05:35:21;93642.88;;;10.70;100.00
42705;BME280;28342;42.594;23.414;2023-04-25T05:37:47;93643.56;;;10.79;100.00
42705;BME280;28342;42.594;23.414;2023-04-25T05:40:13;93623.88;;;10.68;100.00
42705;BME280;28342;42.594;23.414;2023-04-25T05:42:38;93645.16;;;10.92;100.00
42705;BME280;28342;42.594;23.414;2023-04-25T05:45:04;93645.66;;;10.86;100.00
42705;BME280;28342;42.594;23.414;2023-04-25T05:47:30;93637.81;;;10.77;100.00
42705;BME280;28342;42.594;23.414;2023-04-25T05:49:55;93632.97;;;10.79;100.00
42705;BME280;28342;42.594;23.414;2023-04-25T05:52:20;93634.69;;;10.63;100.00
42705;BME280;28342;42.594;23.414;2023-04-25T05:54:46;93646.88;;;10.76;100.00
42705;BME280;28342;42.594;23.414;2023-04-25T05:57:25;93626.00;;;10.74;100.00
42705;BME280;28342;42.594;23.414;2023-04-25T05:59:51;93606.63;;;10.62;100.00
42705;BME280;28342;42.594;23.414;2023-04-25T06:02:19;93641.56;;;10.76;100.00
42705;BME280;28342;42.594;23.414;2023-04-25T06:04:44;93622.78;;;10.81;100.00
42705;BME280;28342;42.594;23.414;2023-04-25T06:07:10;93645.59;;;10.94;100.00
42705;BME280;28342;42.594;23.414;2023-04-25T06:09:35;93646.69;;;10.93;100.00
42705;BME280;28342;42.594;23.414;2023-04-25T06:12:00;93638.72;;;10.93;100.00
42705;BME280;28342;42.594;23.414;2023-04-25T06:14:27;93642.06;;;11.15;100.00
42705;BME280;28342;42.594;23.414;2023-04-25T06:16:52;93625.69;;;11.00;100.00
42705;BME280;28342;42.594;23.414;2023-04-25T06:19:18;93629.91;;;11.14;100.00
42705;BME280;28342;42.594;23.414;2023-04-25T06:21:44;93643.84;;;11.23;100.00
42705;BME280;28342;42.594;23.414;2023-04-25T06:24:09;93639.22;;;11.20;100.00
42705;BME280;28342;42.594;23.414;2023-04-25T06:26:35;93645.84;;;11.38;100.00
42705;BME280;28342;42.594;23.414;2023-04-25T06:29:01;93646.03;;;11.33;100.00
42705;BME280;28342;42.594;23.414;2023-04-25T06:31:26;93644.75;;;11.51;100.00
42705;BME280;28342;42.594;23.414;2023-04-25T06:33:54;93634.56;;;11.41;100.00
42705;BME280;28342;42.594;23.414;2023-04-25T06:36:20;93644.41;;;11.53;100.00
42705;BME280;28342;42.594;23.414;2023-04-25T06:38:50;93648.03;;;11.60;100.00
42705;BME280;28342;42.594;23.414;2023-04-25T06:41:16;93629.78;;;11.59;100.00
42705;BME280;28342;42.594;23.414;2023-04-25T06:43:41;93649.38;;;11.79;100.00
42705;BME280;28342;42.594;23.414;2023-04-25T06:46:07;93656.19;;;11.92;100.00
42705;BME280;28342;42.594;23.414;2023-04-25T06:48:32;93644.28;;;11.86;100.00
42705;BME280;28342;42.594;23.414;2023-04-25T06:50:58;93644.28;;;11.86;97.54
42705;BME280;28342;42.594;23.414;2023-04-25T06:53:23;93647.16;;;11.81;98.27
42705;BME280;28342;42.594;23.414;2023-04-25T06:55:49;93645.03;;;11.99;97.97
42705;BME280;28342;42.594;23.414;2023-04-25T06:58:14;93651.75;;;12.08;98.12
42705;BME280;28342;42.594;23.414;2023-04-25T07:00:40;93657.28;;;12.15;97.18
42705;BME280;28342;42.594;23.414;2023-04-25T07:03:05;93655.50;;;12.07;97.46
42705;BME280;28342;42.594;23.414;2023-04-25T07:05:30;93652.50;;;12.09;97.21
42705;BME280;28342;42.594;23.414;2023-04-25T07:07:56;93658.00;;;12.28;97.06
42705;BME280;28342;42.594;23.414;2023-04-25T07:10:21;93653.66;;;12.36;96.61
42705;BME280;28342;42.594;23.414;2023-04-25T07:12:47;93660.59;;;12.40;97.06
42705;BME280;28342;42.594;23.414;2023-04-25T07:15:12;93655.94;;;12.49;97.88
42705;BME280;28342;42.594;23.414;2023-04-25T07:17:38;93639.88;;;12.46;99.01
42705;BME280;28342;42.594;23.414;2023-04-25T07:20:04;93644.22;;;12.66;97.61
42705;BME280;28342;42.594;23.414;2023-04-25T07:22:31;93623.31;;;12.52;95.10
42705;BME280;28342;42.594;23.414;2023-04-25T07:24:57;93648.63;;;12.74;96.84
42705;BME280;28342;42.594;23.414;2023-04-25T07:27:22;93640.06;;;12.53;95.41
42705;BME280;28342;42.594;23.414;2023-04-25T07:29:48;93644.59;;;12.80;95.53
42705;BME280;28342;42.594;23.414;2023-04-25T07:32:13;93635.25;;;12.86;97.06
42705;BME280;28342;42.594;23.414;2023-04-25T07:34:39;93640.34;;;13.23;96.77
42705;BME280;28342;42.594;23.414;2023-04-25T07:37:05;93651.25;;;13.65;97.09
42705;BME280;28342;42.594;23.414;2023-04-25T07:39:31;93646.13;;;13.76;92.22
42705;BME280;28342;42.594;23.414;2023-04-25T07:41:56;93633.47;;;13.89;91.54
42705;BME280;28342;42.594;23.414;2023-04-25T07:44:24;93639.63;;;13.93;91.72
42705;BME280;28342;42.594;23.414;2023-04-25T07:46:49;93642.66;;;13.91;90.11
42705;BME280;28342;42.594;23.414;2023-04-25T07:49:15;93627.06;;;14.09;91.39
42705;BME280;28342;42.594;23.414;2023-04-25T07:51:40;93613.06;;;14.16;96.30
42705;BME280;28342;42.594;23.414;2023-04-25T07:54:06;93619.13;;;14.51;94.54
42705;BME280;28342;42.594;23.414;2023-04-25T07:56:32;93641.03;;;14.60;90.01
42705;BME280;28342;42.594;23.414;2023-04-25T07:58:57;93638.63;;;14.75;91.69
42705;BME280;28342;42.594;23.414;2023-04-25T08:01:23;93639.44;;;14.56;85.15
42705;BME280;28342;42.594;23.414;2023-04-25T08:03:49;93628.38;;;14.38;91.23
42705;BME280;28342;42.594;23.414;2023-04-25T08:06:14;93632.75;;;14.65;88.12
42705;BME280;28342;42.594;23.414;2023-04-25T08:08:40;93630.16;;;14.92;88.54
42705;BME280;28342;42.594;23.414;2023-04-25T08:11:05;93628.09;;;15.28;89.97
42705;BME280;28342;42.594;23.414;2023-04-25T08:13:31;93627.75;;;15.55;84.09
42705;BME280;28342;42.594;23.414;2023-04-25T08:15:56;93638.69;;;15.96;82.52
42705;BME280;28342;42.594;23.414;2023-04-25T08:18:21;93628.22;;;16.14;83.26
42705;BME280;28342;42.594;23.414;2023-04-25T08:20:47;93629.34;;;16.43;81.91
42705;BME280;28342;42.594;23.414;2023-04-25T08:23:12;93636.38;;;16.55;74.88
42705;BME280;28342;42.594;23.414;2023-04-25T08:25:40;93634.13;;;16.60;73.91
42705;BME280;28342;42.594;23.414;2023-04-25T08:28:06;93634.28;;;16.71;73.96
42705;BME280;28342;42.594;23.414;2023-04-25T08:30:31;93614.63;;;16.93;76.26
42705;BME280;28342;42.594;23.414;2023-04-25T08:32:57;93614.53;;;17.27;74.49
42705;BME280;28342;42.594;23.414;2023-04-25T08:35:23;93623.34;;;17.27;71.70
42705;BME280;28342;42.594;23.414;2023-04-25T08:37:48;93631.19;;;17.50;67.53
42705;BME280;28342;42.594;23.414;2023-04-25T08:40:15;93610.19;;;17.59;71.91
42705;BME280;28342;42.594;23.414;2023-04-25T08:42:44;93622.34;;;17.94;70.04
42705;BME280;28342;42.594;23.414;2023-04-25T08:45:10;93625.50;;;18.10;68.24
42705;BME280;28342;42.594;23.414;2023-04-25T08:47:38;93628.78;;;17.82;63.19
42705;BME280;28342;42.594;23.414;2023-04-25T08:50:05;93632.22;;;17.83;66.63
42705;BME280;28342;42.594;23.414;2023-04-25T08:52:36;93608.03;;;17.28;63.75
42705;BME280;28342;42.594;23.414;2023-04-25T08:55:02;93623.28;;;17.17;68.02
42705;BME280;28342;42.594;23.414;2023-04-25T08:57:29;93615.13;;;16.69;71.11
42705;BME280;28342;42.594;23.414;2023-04-25T08:59:57;93607.56;;;16.78;72.13
42705;BME280;28342;42.594;23.414;2023-04-25T09:02:24;93609.22;;;16.90;64.73
42705;BME280;28342;42.594;23.414;2023-04-25T09:04:50;93594.97;;;17.19;68.15
42705;BME280;28342;42.594;23.414;2023-04-25T09:07:15;93617.75;;;17.98;68.40
42705;BME280;28342;42.594;23.414;2023-04-25T09:09:46;93610.34;;;18.57;64.12
42705;BME280;28342;42.594;23.414;2023-04-25T09:12:11;93608.78;;;18.49;61.91
42705;BME280;28342;42.594;23.414;2023-04-25T09:14:37;93606.97;;;18.81;59.04
42705;BME280;28342;42.594;23.414;2023-04-25T09:17:04;93618.13;;;18.84;57.28
42705;BME280;28342;42.594;23.414;2023-04-25T09:19:37;93602.56;;;18.27;60.74
42705;BME280;28342;42.594;23.414;2023-04-25T09:22:06;93608.13;;;18.80;64.53
42705;BME280;28342;42.594;23.414;2023-04-25T09:24:44;93596.25;;;18.96;61.77
42705;BME280;28342;42.594;23.414;2023-04-25T09:27:13;93592.06;;;19.23;59.46
42705;BME280;28342;42.594;23.414;2023-04-25T09:29:42;93600.94;;;19.31;61.55
42705;BME280;28342;42.594;23.414;2023-04-25T09:34:41;93598.22;;;19.06;56.97
42705;BME280;28342;42.594;23.414;2023-04-25T09:37:11;93589.00;;;19.42;58.82
42705;BME280;28342;42.594;23.414;2023-04-25T09:39:37;93581.34;;;19.48;58.58
42705;BME280;28342;42.594;23.414;2023-04-25T09:42:04;93560.56;;;19.70;55.35
42705;BME280;28342;42.594;23.414;2023-04-25T09:44:29;93595.88;;;20.08;51.80
42705;BME280;28342;42.594;23.414;2023-04-25T09:46:55;93585.19;;;19.68;51.31
42705;BME280;28342;42.594;23.414;2023-04-25T09:49:20;93586.69;;;19.80;57.04
42705;BME280;28342;42.594;23.414;2023-04-25T09:51:56;93600.53;;;19.75;56.99
42705;BME280;28342;42.594;23.414;2023-04-25T09:54:23;93602.88;;;19.66;58.25
42705;BME280;28342;42.594;23.414;2023-04-25T09:56:51;93582.84;;;19.10;58.23
42705;BME280;28342;42.594;23.414;2023-04-25T09:59:20;93602.03;;;19.08;59.84
42705;BME280;28342;42.594;23.414;2023-04-25T10:01:48;93599.69;;;18.71;64.48
42705;BME280;28342;42.594;23.414;2023-04-25T10:04:19;93624.13;;;18.45;66.13
42705;BME280;28342;42.594;23.414;2023-04-25T10:06:49;93599.13;;;17.65;61.08
42705;BME280;28342;42.594;23.414;2023-04-25T10:09:16;93595.03;;;17.30;63.49
42705;BME280;28342;42.594;23.414;2023-04-25T10:11:47;93598.81;;;17.22;66.34
42705;BME280;28342;42.594;23.414;2023-04-25T10:14:16;93599.53;;;17.19;66.64
42705;BME280;28342;42.594;23.414;2023-04-25T10:16:41;93578.38;;;17.07;63.63
42705;BME280;28342;42.594;23.414;2023-04-25T10:19:08;93582.88;;;17.43;68.09
42705;BME280;28342;42.594;23.414;2023-04-25T10:21:33;93585.56;;;17.98;71.20
42705;BME280;28342;42.594;23.414;2023-04-25T10:24:00;93564.78;;;17.81;72.25
42705;BME280;28342;42.594;23.414;2023-04-25T10:26:25;93590.88;;;17.91;69.77
42705;BME280;28342;42.594;23.414;2023-04-25T10:28:55;93576.06;;;18.22;68.41
42705;BME280;28342;42.594;23.414;2023-04-25T10:31:22;93579.50;;;18.15;67.00
42705;BME280;28342;42.594;23.414;2023-04-25T10:33:48;93576.28;;;17.81;67.20
42705;BME280;28342;42.594;23.414;2023-04-25T10:36:18;93586.47;;;17.61;64.00
42705;BME280;28342;42.594;23.414;2023-04-25T10:38:45;93587.38;;;17.80;67.02
42705;BME280;28342;42.594;23.414;2023-04-25T10:41:12;93562.81;;;17.74;61.86
42705;BME280;28342;42.594;23.414;2023-04-25T10:43:42;93579.03;;;17.99;62.03
42705;BME280;28342;42.594;23.414;2023-04-25T10:46:28;93574.41;;;17.92;57.26
42705;BME280;28342;42.594;23.414;2023-04-25T10:49:00;93551.75;;;17.83;59.15
42705;BME280;28342;42.594;23.414;2023-04-25T10:51:33;93558.25;;;17.27;55.08
42705;BME280;28342;42.594;23.414;2023-04-25T10:56:27;93568.13;;;17.16;55.22
42705;BME280;28342;42.594;23.414;2023-04-25T10:59:14;93575.34;;;17.08;58.88
42705;BME280;28342;42.594;23.414;2023-04-25T11:01:48;93581.09;;;17.14;61.04
42705;BME280;28342;42.594;23.414;2023-04-25T11:04:23;93588.91;;;16.85;58.37
42705;BME280;28342;42.594;23.414;2023-04-25T11:09:34;93610.13;;;16.34;62.11
42705;BME280;28342;42.594;23.414;2023-04-25T11:12:00;93603.06;;;16.19;64.13
42705;BME280;28342;42.594;23.414;2023-04-25T11:14:26;93619.81;;;16.12;64.79
42705;BME280;28342;42.594;23.414;2023-04-25T11:16:57;93604.47;;;16.09;68.61
42705;BME280;28342;42.594;23.414;2023-04-25T11:19:24;93595.47;;;15.64;69.30
42705;BME280;28342;42.594;23.414;2023-04-25T11:21:50;93579.19;;;15.23;69.33
42705;BME280;28342;42.594;23.414;2023-04-25T11:24:16;93600.22;;;15.02;68.76
42705;BME280;28342;42.594;23.414;2023-04-25T11:26:43;93585.53;;;15.15;73.48
42705;BME280;28342;42.594;23.414;2023-04-25T11:29:09;93561.50;;;15.42;80.68
42705;BME280;28342;42.594;23.414;2023-04-25T11:31:34;93573.91;;;16.10;79.95
42705;BME280;28342;42.594;23.414;2023-04-25T11:33:59;93577.44;;;15.88;66.84
42705;BME280;28342;42.594;23.414;2023-04-25T11:36:25;93586.38;;;16.29;70.30
42705;BME280;28342;42.594;23.414;2023-04-25T11:38:52;93574.69;;;16.81;73.20
42705;BME280;28342;42.594;23.414;2023-04-25T11:41:19;93576.78;;;17.46;69.16
42705;BME280;28342;42.594;23.414;2023-04-25T11:43:45;93578.25;;;17.40;56.65
42705;BME280;28342;42.594;23.414;2023-04-25T11:46:11;93573.16;;;16.80;62.36
42705;BME280;28342;42.594;23.414;2023-04-25T11:48:40;93579.25;;;16.77;62.61
42705;BME280;28342;42.594;23.414;2023-04-25T11:51:09;93589.97;;;16.77;60.76
42705;BME280;28342;42.594;23.414;2023-04-25T11:53:35;93586.91;;;16.75;62.49
42705;BME280;28342;42.594;23.414;2023-04-25T11:56:01;93591.19;;;16.50;66.22
42705;BME280;28342;42.594;23.414;2023-04-25T11:58:29;93595.09;;;16.56;65.27
42705;BME280;28342;42.594;23.414;2023-04-25T12:00:56;93594.78;;;16.31;69.87
42705;BME280;28342;42.594;23.414;2023-04-25T12:03:23;93595.97;;;16.33;70.03
42705;BME280;28342;42.594;23.414;2023-04-25T12:05:51;93602.78;;;15.97;75.15
42705;BME280;28342;42.594;23.414;2023-04-25T12:08:16;93607.84;;;16.06;68.93
42705;BME280;28342;42.594;23.414;2023-04-25T12:10:43;93617.53;;;16.14;72.08
42705;BME280;28342;42.594;23.414;2023-04-25T12:13:23;93625.78;;;16.02;75.36
42705;BME280;28342;42.594;23.414;2023-04-25T12:15:49;93609.50;;;15.35;72.23
42705;BME280;28342;42.594;23.414;2023-04-25T12:18:19;93612.31;;;14.73;70.54
42705;BME280;28342;42.594;23.414;2023-04-25T12:20:44;93576.81;;;14.73;72.59
42705;BME280;28342;42.594;23.414;2023-04-25T12:23:11;93577.50;;;14.70;74.93
42705;BME280;28342;42.594;23.414;2023-04-25T12:25:38;93581.41;;;14.53;78.53
42705;BME280;28342;42.594;23.414;2023-04-25T12:28:15;93571.81;;;14.29;80.50
42705;BME280;28342;42.594;23.414;2023-04-25T12:31:03;93576.03;;;14.11;83.01
42705;BME280;28342;42.594;23.414;2023-04-25T12:33:36;93583.53;;;14.05;84.53
42705;BME280;28342;42.594;23.414;2023-04-25T12:36:04;93567.56;;;13.70;78.19
42705;BME280;28342;42.594;23.414;2023-04-25T12:38:42;93571.13;;;13.58;81.37
42705;BME280;28342;42.594;23.414;2023-04-25T12:41:08;93564.66;;;13.40;81.71
42705;BME280;28342;42.594;23.414;2023-04-25T12:43:34;93577.53;;;13.73;86.44
42705;BME280;28342;42.594;23.414;2023-04-25T12:46:00;93573.63;;;13.86;87.68
42705;BME280;28342;42.594;23.414;2023-04-25T12:48:26;93578.97;;;14.05;86.41
42705;BME280;28342;42.594;23.414;2023-04-25T12:50:51;93556.78;;;14.01;84.77